Time;durP1;ratioP1;P1;durP2;ratioP2;P2;SDS_P1;SDS_P2;PMS_P1;PMS_P2;Temp;Humidity;BMP_temperature;BMP_pressure;BME280_temperature;BME280_humidity;BME280_pressure;Samples;Min_cycle;Max_cycle;Signal;HPM_P1;HPM_P2
2022/10/05 00:03:44;;;;;;;15.30;9.10;;;;;;;8.23;78.80;100491.39;214687;1276;141549;-64
2022/10/05 00:08:47;;;;;;;12.50;8.90;;;;;;;8.19;78.39;100489.09;215654;1276;139942;-64
2022/10/05 00:13:50;;;;;;;19.30;9.60;;;;;;;8.07;78.47;100486.34;215598;1276;140502;-65
2022/10/05 00:18:52;;;;;;;18.40;8.90;;;;;;;8.00;78.83;100478.84;215774;1276;141942;-64
2022/10/05 00:23:56;;;;;;;14.40;8.90;;;;;;;7.89;77.91;100471.73;215536;1276;141622;-63
2022/10/05 00:29:07;;;;;;;13.00;9.10;;;;;;;7.77;78.28;100466.44;215489;1276;141157;-64
2022/10/05 00:34:11;;;;;;;16.00;9.80;;;;;;;7.69;78.73;100456.27;215741;1276;141049;-64
2022/10/05 00:39:16;;;;;;;12.40;9.10;;;;;;;7.63;78.78;100460.42;215772;1276;140343;-63
2022/10/05 00:44:37;;;;;;;16.50;9.70;;;;;;;7.59;78.78;100446.09;215492;1276;141953;-63
2022/10/05 00:50:27;;;;;;;21.60;10.10;;;;;;;7.63;79.06;100444.88;215336;1276;142713;-65
2022/10/05 00:55:47;;;;;;;17.50;9.60;;;;;;;7.72;79.61;100449.07;215067;1276;142396;-64
2022/10/05 01:01:21;;;;;;;14.20;8.80;;;;;;;7.78;79.31;100444.36;215747;1275;141195;-64
2022/10/05 01:06:44;;;;;;;12.10;8.10;;;;;;;7.80;79.63;100439.10;215653;1276;140442;-62
2022/10/05 01:11:53;;;;;;;9.30;7.60;;;;;;;7.82;79.18;100434.70;215632;1276;141341;-63
2022/10/05 01:17:31;;;;;;;11.90;8.00;;;;;;;7.81;79.51;100431.27;214816;1276;142983;-64
2022/10/05 01:23:00;;;;;;;19.80;9.40;;;;;;;7.81;79.71;100435.26;215402;1276;140680;-65
2022/10/05 01:28:12;;;;;;;14.10;9.30;;;;;;;7.73;79.75;100436.95;214075;1276;140504;-64
2022/10/05 01:33:24;;;;;;;13.70;9.80;;;;;;;7.62;79.80;100452.75;215339;1276;142518;-64
2022/10/05 01:38:47;;;;;;;14.70;8.30;;;;;;;7.64;80.03;100463.23;215377;1276;140989;-64
2022/10/05 01:43:57;;;;;;;16.30;7.50;;;;;;;7.67;79.96;100454.89;215498;1276;141830;-65
2022/10/05 01:49:36;;;;;;;10.10;8.10;;;;;;;7.60;79.76;100451.56;215407;1276;140408;-66
2022/10/05 01:54:53;;;;;;;17.00;10.50;;;;;;;7.59;79.79;100459.77;215078;1276;140373;-64
2022/10/05 02:00:02;;;;;;;16.90;9.50;;;;;;;7.52;80.13;100448.87;215532;1276;140806;-67
2022/10/05 02:05:20;;;;;;;13.60;9.10;;;;;;;7.43;80.02;100437.71;215222;1276;141211;-65
2022/10/05 02:10:25;;;;;;;12.10;9.00;;;;;;;7.37;80.29;100413.92;215101;1276;140891;-65
2022/10/05 02:15:57;;;;;;;16.60;10.40;;;;;;;7.33;80.89;100419.27;215310;1276;140420;-66
2022/10/05 02:21:02;;;;;;;20.20;9.30;;;;;;;7.31;80.83;100430.16;215505;1276;142126;-65
2022/10/05 02:26:10;;;;;;;13.90;9.30;;;;;;;7.29;81.15;100419.84;214931;1276;141421;-64
2022/10/05 02:31:22;;;;;;;16.90;9.10;;;;;;;7.28;81.10;100403.92;215321;1276;142522;-65
2022/10/05 02:36:35;;;;;;;17.90;11.30;;;;;;;7.31;81.23;100417.73;214748;1276;209220;-65
2022/10/05 02:42:19;;;;;;;16.00;11.60;;;;;;;7.32;81.58;100421.36;215696;1275;141649;-65
2022/10/05 02:47:52;;;;;;;16.50;10.50;;;;;;;7.36;81.38;100427.97;215451;1276;142593;-65
2022/10/05 02:53:00;;;;;;;12.40;8.90;;;;;;;7.37;81.78;100427.32;215460;1274;142432;-65
2022/10/05 02:58:12;;;;;;;10.90;8.50;;;;;;;7.34;81.31;100414.25;215648;1275;141515;-65
2022/10/05 03:03:43;;;;;;;11.90;8.40;;;;;;;7.35;81.78;100406.09;215639;1276;141551;-65
2022/10/05 03:08:54;;;;;;;11.30;8.90;;;;;;;7.39;81.87;100411.41;215396;1276;141452;-65
2022/10/05 03:14:22;;;;;;;16.70;10.70;;;;;;;7.43;82.14;100415.77;215374;1275;141523;-65
2022/10/05 03:19:28;;;;;;;16.50;9.10;;;;;;;7.44;82.39;100409.65;215365;1276;142554;-65
2022/10/05 03:25:12;;;;;;;13.60;9.50;;;;;;;7.46;82.40;100397.61;215408;1277;163037;-65
2022/10/05 03:30:18;;;;;;;11.90;8.90;;;;;;;7.51;82.43;100390.34;215256;1276;140690;-64
2022/10/05 03:35:49;;;;;;;13.70;9.00;;;;;;;7.59;82.30;100379.08;215200;1275;141028;-65
2022/10/05 03:41:10;;;;;;;17.00;9.80;;;;;;;7.59;82.06;100382.09;215541;1276;141233;-65
2022/10/05 03:46:29;;;;;;;12.00;8.80;;;;;;;7.59;82.35;100396.45;215382;1276;141615;-65
2022/10/05 03:51:37;;;;;;;12.40;10.80;;;;;;;7.62;82.74;100387.57;215395;1277;142977;-65
2022/10/05 03:56:49;;;;;;;13.50;9.60;;;;;;;7.66;82.92;100397.60;215082;1276;142372;-65
2022/10/05 04:02:02;;;;;;;9.40;7.70;;;;;;;7.73;82.82;100381.30;215644;1276;142082;-66
2022/10/05 04:07:14;;;;;;;13.00;8.60;;;;;;;7.78;82.89;100381.32;214777;1276;140689;-65
2022/10/05 04:12:37;;;;;;;10.50;7.40;;;;;;;7.80;82.91;100387.77;213675;1275;141716;-64
2022/10/05 04:17:50;;;;;;;9.00;7.10;;;;;;;7.85;83.00;100387.14;215483;1276;141236;-67
2022/10/05 04:23:04;;;;;;;12.30;6.30;;;;;;;7.92;82.92;100380.83;215178;1275;141334;-64
2022/10/05 04:28:22;;;;;;;11.60;6.20;;;;;;;7.97;83.05;100374.59;215285;1276;141999;-65
2022/10/05 04:33:31;;;;;;;10.20;6.80;;;;;;;8.03;83.02;100365.42;215445;1276;140808;-65
2022/10/05 04:38:48;;;;;;;10.50;6.90;;;;;;;8.08;83.04;100377.48;215692;1275;140767;-66
2022/10/05 04:44:20;;;;;;;8.20;6.70;;;;;;;8.15;83.18;100391.47;215727;1275;150947;-66
2022/10/05 04:49:58;;;;;;;13.90;6.80;;;;;;;8.22;83.09;100392.75;215362;1276;141561;-65
2022/10/05 04:55:22;;;;;;;14.90;6.20;;;;;;;8.28;82.66;100396.24;215601;1276;140552;-65
2022/10/05 05:00:32;;;;;;;9.10;5.60;;;;;;;8.32;82.47;100392.59;215834;1275;140696;-65
2022/10/05 05:06:08;;;;;;;11.30;5.60;;;;;;;8.29;82.70;100392.24;215562;1276;140217;-65
2022/10/05 05:11:27;;;;;;;8.00;6.30;;;;;;;8.31;82.57;100396.59;215572;1276;140273;-65
2022/10/05 05:16:41;;;;;;;6.50;5.00;;;;;;;8.37;82.52;100399.77;215515;1276;141015;-65
2022/10/05 05:21:51;;;;;;;6.00;5.00;;;;;;;8.41;82.46;100388.70;215626;1273;142012;-65
2022/10/05 05:27:23;;;;;;;11.10;5.70;;;;;;;8.51;82.83;100390.83;215655;1276;140008;-65
2022/10/05 05:33:02;;;;;;;11.10;6.00;;;;;;;8.67;82.99;100392.19;215536;1276;140786;-65
2022/10/05 05:38:30;;;;;;;11.80;5.30;;;;;;;8.77;82.64;100397.95;215633;1273;140898;-65
2022/10/05 05:43:47;;;;;;;10.10;5.70;;;;;;;8.86;82.64;100392.81;214671;1275;140741;-67
2022/10/05 05:48:55;;;;;;;6.80;5.40;;;;;;;8.98;82.56;100391.60;215796;1276;141728;-67
2022/10/05 05:54:39;;;;;;;5.20;4.70;;;;;;;9.04;82.38;100382.34;215560;1276;140425;-65
2022/10/05 05:59:55;;;;;;;7.50;5.20;;;;;;;9.16;82.45;100380.88;215456;1277;141305;-65
2022/10/05 06:05:09;;;;;;;5.70;4.40;;;;;;;9.34;82.35;100396.16;213693;1276;141164;-65
2022/10/05 06:10:40;;;;;;;6.30;3.80;;;;;;;9.48;82.08;100400.16;215696;1276;142073;-66
2022/10/05 06:15:57;;;;;;;6.20;5.10;;;;;;;9.50;81.87;100393.38;214283;1276;141384;-65
2022/10/05 06:21:23;;;;;;;10.20;5.30;;;;;;;9.52;81.78;100394.80;213949;1276;141265;-64
2022/10/05 06:26:41;;;;;;;7.40;4.20;;;;;;;9.59;81.97;100399.48;214672;1273;141387;-65
2022/10/05 06:31:43;;;;;;;9.80;5.00;;;;;;;9.68;81.60;100396.30;212788;1276;141553;-65
2022/10/05 06:36:59;;;;;;;6.00;4.90;;;;;;;9.81;81.75;100390.00;216019;1276;140560;-65
2022/10/05 06:42:44;;;;;;;7.40;5.60;;;;;;;9.91;81.54;100384.40;215697;1276;141193;-65
2022/10/05 06:48:12;;;;;;;11.20;6.20;;;;;;;10.13;81.48;100389.73;215538;1276;142190;-65
2022/10/05 06:53:37;;;;;;;11.60;6.30;;;;;;;10.33;81.41;100401.58;215060;1276;141488;-66
2022/10/05 06:59:02;;;;;;;8.70;5.60;;;;;;;10.54;81.09;100398.16;215639;1276;141376;-66
2022/10/05 07:04:34;;;;;;;6.30;5.20;;;;;;;10.78;81.09;100415.01;215435;1276;141193;-66
2022/10/05 07:09:57;;;;;;;9.50;5.10;;;;;;;11.05;80.84;100410.70;215618;1276;140881;-66
2022/10/05 07:15:18;;;;;;;8.10;4.90;;;;;;;11.46;80.97;100411.16;215671;1276;141163;-66
2022/10/05 07:20:32;;;;;;;5.40;4.90;;;;;;;11.71;80.12;100415.36;215575;1275;141231;-66
2022/10/05 07:25:57;;;;;;;8.50;6.50;;;;;;;11.73;79.51;100403.18;215646;1276;141697;-66
2022/10/05 07:31:39;;;;;;;8.40;5.00;;;;;;;11.68;79.17;100393.87;215593;1276;141126;-66
2022/10/05 07:43:08;;;;;;;6.90;5.10;;;;;;;12.02;79.47;100377.10;215723;1275;141260;-66
2022/10/05 07:48:17;;;;;;;8.90;4.80;;;;;;;12.31;79.02;100370.86;215712;1276;140553;-66
2022/10/05 07:53:34;;;;;;;11.40;6.10;;;;;;;12.45;78.59;100365.58;215771;1275;141069;-66
2022/10/05 07:58:43;;;;;;;9.00;5.60;;;;;;;12.84;78.73;100363.11;215422;1276;141957;-66
2022/10/05 08:03:55;;;;;;;15.10;5.40;;;;;;;13.58;78.64;100351.02;215337;1276;140670;-66
2022/10/05 08:09:03;;;;;;;10.80;3.90;;;;;;;14.02;77.77;100347.63;215659;1276;142467;-67
2022/10/05 08:14:19;;;;;;;5.90;3.60;;;;;;;14.25;76.69;100348.65;213372;1276;141143;-65
2022/10/05 08:19:49;;;;;;;7.30;4.70;;;;;;;14.31;75.58;100352.14;215511;1276;141119;-66
2022/10/05 08:25:01;;;;;;;4.90;3.10;;;;;;;14.33;75.30;100358.16;215885;1276;150718;-66
2022/10/05 08:30:09;;;;;;;7.60;3.70;;;;;;;14.37;74.94;100348.02;215796;1276;141691;-66
2022/10/05 08:35:34;;;;;;;3.90;3.20;;;;;;;14.40;74.46;100350.72;215037;1274;141920;-65
2022/10/05 08:40:53;;;;;;;9.60;4.20;;;;;;;14.38;74.03;100349.71;215515;1276;142155;-66
2022/10/05 08:46:21;;;;;;;4.50;3.80;;;;;;;14.54;74.00;100356.85;215807;1276;140887;-66
2022/10/05 08:51:52;;;;;;;5.00;3.20;;;;;;;14.58;73.75;100362.44;215208;1276;139915;-65
2022/10/05 08:57:09;;;;;;;5.00;4.00;;;;;;;14.64;73.27;100366.08;215794;1275;141543;-66
2022/10/05 09:02:27;;;;;;;7.40;5.20;;;;;;;14.73;73.00;100360.66;215664;1276;142024;-66
2022/10/05 09:07:39;;;;;;;8.70;4.10;;;;;;;14.85;72.68;100365.63;215725;1276;139925;-66
2022/10/05 09:13:22;;;;;;;5.60;4.80;;;;;;;14.93;72.56;100360.42;215854;1276;140145;-66
2022/10/05 09:18:41;;;;;;;10.30;5.30;;;;;;;15.24;72.43;100358.50;215758;1276;161706;-66
2022/10/05 09:23:54;;;;;;;7.30;5.20;;;;;;;15.43;72.07;100360.23;215670;1277;141385;-67
2022/10/05 09:29:28;;;;;;;6.80;5.40;;;;;;;15.80;71.90;100362.54;215789;1276;140234;-67
2022/10/05 09:34:38;;;;;;;7.90;4.80;;;;;;;16.06;71.39;100369.89;215438;1276;141621;-67
2022/10/05 09:40:16;;;;;;;7.50;5.20;;;;;;;16.34;70.89;100380.84;215775;1276;140140;-67
2022/10/05 09:45:39;;;;;;;8.70;4.70;;;;;;;16.58;70.41;100389.63;215295;1276;141238;-66
2022/10/05 09:50:56;;;;;;;6.90;4.90;;;;;;;16.61;69.53;100380.50;215672;1276;141889;-67
2022/10/05 09:56:04;;;;;;;8.20;5.30;;;;;;;16.53;69.37;100364.29;215398;1276;563194;-66
2022/10/05 10:02:02;;;;;;;5.40;4.60;;;;;;;16.59;69.32;100363.48;215169;1276;140358;-66
2022/10/05 10:07:44;;;;;;;5.70;4.70;;;;;;;16.70;69.37;100367.84;213762;1282;140248;-66
2022/10/05 10:13:19;;;;;;;7.90;4.50;;;;;;;16.72;68.74;100368.83;215646;1276;141319;-66
2022/10/05 10:18:44;;;;;;;6.20;4.50;;;;;;;16.59;68.27;100371.55;215871;1276;141012;-67
2022/10/05 10:24:22;;;;;;;4.30;3.90;;;;;;;16.51;68.39;100364.44;214783;1276;140928;-66
2022/10/05 10:29:49;;;;;;;5.90;4.40;;;;;;;16.70;68.61;100354.67;214283;1276;140966;-66
2022/10/05 10:35:03;;;;;;;;;;;;;;;16.98;68.28;100353.73;215573;1275;141467;-67
2022/10/05 10:40:14;;;;;;;5.30;4.40;;;;;;;17.05;67.77;100359.90;216231;1277;128198;-66
2022/10/05 10:45:41;;;;;;;6.20;4.30;;;;;;;17.21;67.90;100358.51;214209;1276;140186;-66
2022/10/05 10:51:15;;;;;;;5.00;4.40;;;;;;;17.48;67.56;100349.82;215317;1277;141140;-67
2022/10/05 10:56:37;;;;;;;5.40;3.40;;;;;;;17.54;66.98;100350.98;215786;1276;140245;-66
2022/10/05 11:02:18;;;;;;;9.20;4.00;;;;;;;17.69;66.80;100341.89;214613;1276;140606;-66
2022/10/05 11:07:31;;;;;;;12.00;4.20;;;;;;;17.77;66.60;100334.33;215726;1276;140558;-66
2022/10/05 11:12:43;;;;;;;11.00;4.60;;;;;;;17.83;66.23;100324.41;215854;1276;142043;-66
2022/10/05 11:18:08;;;;;;;2.60;2.30;;;;;;;17.78;65.72;100317.23;215530;1276;141095;-66
2022/10/05 11:23:52;;;;;;;4.00;3.70;;;;;;;17.72;65.51;100309.96;214693;1276;140149;-65
2022/10/05 11:29:07;;;;;;;6.80;3.70;;;;;;;17.69;65.69;100316.66;215468;1276;139626;-66
2022/10/05 11:34:29;;;;;;;6.80;3.20;;;;;;;17.72;65.79;100310.88;215617;1276;140023;-66
2022/10/05 11:39:41;;;;;;;3.60;2.80;;;;;;;17.77;65.43;100311.63;215458;1277;140727;-67
2022/10/05 11:45:05;;;;;;;4.10;3.70;;;;;;;17.87;65.16;100304.58;215584;1276;140211;-66
2022/10/05 11:50:31;;;;;;;3.20;2.90;;;;;;;18.03;65.08;100306.90;215365;1276;140906;-65
2022/10/05 11:56:04;;;;;;;6.40;3.00;;;;;;;18.23;64.80;100309.33;215612;1276;139796;-66
2022/10/05 12:01:29;;;;;;;4.20;3.60;;;;;;;18.30;64.52;100292.75;213837;1276;140349;-66
2022/10/05 12:06:56;;;;;;;3.70;3.10;;;;;;;18.57;64.17;100278.56;215741;1276;140853;-66
2022/10/05 12:12:28;;;;;;;5.40;3.50;;;;;;;18.79;64.05;100283.80;215638;1277;141900;-66
2022/10/05 12:17:41;;;;;;;6.60;3.00;;;;;;;18.87;63.23;100271.46;215036;1276;163304;-66
2022/10/05 12:22:57;;;;;;;3.40;2.90;;;;;;;18.76;63.15;100270.90;215647;1275;140833;-66
2022/10/05 12:28:08;;;;;;;13.10;2.90;;;;;;;18.67;62.87;100269.52;215632;1276;141055;-66
2022/10/05 12:33:22;;;;;;;2.70;2.30;;;;;;;18.59;62.70;100268.95;215109;1276;140297;-66
2022/10/05 12:38:48;;;;;;;4.60;2.90;;;;;;;18.43;62.68;100263.51;215082;1276;140173;-65
2022/10/05 12:44:10;;;;;;;4.40;2.70;;;;;;;18.40;62.89;100267.62;214143;1276;140400;-66
2022/10/05 12:49:39;;;;;;;5.00;2.70;;;;;;;18.39;62.87;100263.63;215677;1276;141259;-66
2022/10/05 12:54:51;;;;;;;3.40;3.00;;;;;;;18.24;63.09;100261.89;215081;1275;140767;-65
2022/10/05 13:00:07;;;;;;;4.40;2.90;;;;;;;18.36;63.63;100263.86;215240;1276;140373;-67
2022/10/05 13:05:25;;;;;;;2.20;2.10;;;;;;;18.47;63.41;100267.98;213906;1276;140525;-65
2022/10/05 13:10:43;;;;;;;3.10;2.70;;;;;;;18.51;63.27;100267.72;215569;1276;141492;-67
2022/10/05 13:15:59;;;;;;;2.20;2.10;;;;;;;18.47;62.99;100259.99;215567;1276;140411;-65
2022/10/05 13:21:19;;;;;;;2.80;2.70;;;;;;;18.33;63.00;100248.21;215629;1276;140502;-68
2022/10/05 13:26:36;;;;;;;5.10;2.60;;;;;;;18.27;63.09;100243.97;215456;1276;140192;-65
2022/10/05 13:31:46;;;;;;;3.00;2.80;;;;;;;18.33;63.32;100243.20;215333;1276;142033;-67
2022/10/05 13:37:05;;;;;;;3.80;2.20;;;;;;;18.36;63.26;100234.49;215565;1276;141859;-65
2022/10/05 13:42:40;;;;;;;3.60;2.90;;;;;;;18.29;63.04;100239.16;215690;1276;140664;-65
2022/10/05 13:47:51;;;;;;;4.00;3.20;;;;;;;18.27;62.96;100236.73;215251;1276;140653;-66
2022/10/05 13:53:22;;;;;;;3.80;2.70;;;;;;;18.24;63.15;100231.45;215575;1276;140433;-63
2022/10/05 13:58:42;;;;;;;1.90;1.80;;;;;;;18.32;63.42;100235.48;215673;1276;139984;-68
2022/10/05 14:04:16;;;;;;;7.40;3.20;;;;;;;18.35;63.21;100232.48;215469;1276;140839;-66
2022/10/05 14:09:19;;;;;;;8.90;2.70;;;;;;;18.42;63.03;100228.96;215537;1276;140126;-66
2022/10/05 14:14:25;;;;;;;3.90;2.80;;;;;;;18.48;62.92;100223.23;214688;1276;140481;-64
2022/10/05 14:19:58;;;;;;;4.90;3.00;;;;;;;18.42;62.55;100223.20;213764;1276;140091;-65
2022/10/05 14:25:09;;;;;;;;;;;;;;;18.26;62.60;100223.23;214277;1276;141001;-66
2022/10/05 14:30:13;;;;;;;10.10;9.40;;;;;;;18.13;62.65;100221.10;215907;1277;126417;-65
2022/10/05 14:35:24;;;;;;;4.90;2.50;;;;;;;18.07;62.81;100218.67;215571;1276;141332;-66
2022/10/05 14:40:35;;;;;;;3.10;2.90;;;;;;;17.94;62.80;100214.50;215410;1276;141142;-66
2022/10/05 14:45:58;;;;;;;15.50;5.70;;;;;;;17.83;63.01;100201.39;215595;1276;140344;-66
2022/10/05 14:51:10;;;;;;;2.90;2.70;;;;;;;17.64;62.81;100201.06;215363;1276;141012;-65
2022/10/05 14:56:39;;;;;;;5.80;2.90;;;;;;;17.48;63.24;100191.02;215395;1276;141388;-66
2022/10/05 15:01:54;;;;;;;3.20;2.90;;;;;;;17.34;63.52;100187.67;214424;1276;141352;-65
2022/10/05 15:07:26;;;;;;;3.40;2.50;;;;;;;17.21;63.67;100186.04;214957;1276;140126;-65
2022/10/05 15:12:42;;;;;;;4.60;2.70;;;;;;;17.04;63.97;100186.17;215653;1275;141221;-65
2022/10/05 15:17:54;;;;;;;8.60;5.30;;;;;;;16.89;64.20;100180.84;215374;1276;141670;-65
2022/10/05 15:23:26;;;;;;;2.80;2.30;;;;;;;16.79;64.49;100174.16;214707;1276;140911;-65
2022/10/05 15:29:03;;;;;;;4.30;3.30;;;;;;;16.64;64.79;100174.52;215436;1276;142219;-65
2022/10/05 15:34:15;;;;;;;5.20;4.80;;;;;;;16.47;65.21;100169.75;215427;1276;164628;-66
2022/10/05 15:39:24;;;;;;;4.20;3.50;;;;;;;16.31;65.56;100169.02;215607;1276;141840;-66
2022/10/05 15:44:46;;;;;;;7.70;3.30;;;;;;;16.21;65.93;100162.90;215389;1276;141858;-65
2022/10/05 15:50:10;;;;;;;9.70;3.60;;;;;;;16.12;66.33;100159.27;215559;1276;141723;-67
2022/10/05 15:55:37;;;;;;;6.00;3.70;;;;;;;16.03;66.65;100153.02;215606;1276;141571;-65
2022/10/05 16:00:54;;;;;;;7.30;4.60;;;;;;;15.96;66.89;100149.90;215693;1276;141198;-68
2022/10/05 16:12:05;;;;;;;5.00;4.40;;;;;;;15.80;66.92;100147.45;215518;1276;140707;-64
2022/10/05 16:17:10;;;;;;;5.70;3.70;;;;;;;15.62;67.01;100156.34;214026;1276;141394;-65
2022/10/05 16:22:30;;;;;;;4.00;3.20;;;;;;;15.43;67.08;100151.06;214478;1276;140844;-68
2022/10/05 16:28:03;;;;;;;7.10;5.60;;;;;;;15.26;67.21;100152.15;215351;1276;144337;-66
2022/10/05 16:33:17;;;;;;;4.70;3.10;;;;;;;15.14;67.26;100158.27;213305;1276;142619;-64
2022/10/05 16:38:32;;;;;;;6.60;3.40;;;;;;;15.01;67.42;100159.70;213184;1276;143178;-66
2022/10/05 16:43:45;;;;;;;7.20;4.20;;;;;;;14.91;67.64;100161.77;215265;1276;141357;-69
2022/10/05 16:48:47;;;;;;;6.10;4.10;;;;;;;14.82;67.73;100156.29;215484;1275;142741;-70
2022/10/05 16:54:19;;;;;;;4.50;4.10;;;;;;;14.76;67.81;100158.30;215426;1276;140954;-67
2022/10/05 16:59:32;;;;;;;5.70;4.60;;;;;;;14.69;67.92;100163.92;215450;1276;140456;-68
2022/10/05 17:04:44;;;;;;;9.70;4.90;;;;;;;14.64;68.27;100161.30;215412;1276;141836;-69
2022/10/05 17:10:20;;;;;;;4.00;3.70;;;;;;;14.55;68.27;100161.67;215261;1275;141077;-70
2022/10/05 17:15:32;;;;;;;9.30;4.10;;;;;;;14.49;68.27;100160.95;215260;1276;140557;-70
2022/10/05 17:20:48;;;;;;;6.10;4.20;;;;;;;14.35;68.42;100157.00;215544;1276;140436;-69
2022/10/05 17:26:06;;;;;;;8.90;4.40;;;;;;;14.21;68.73;100159.07;215278;1276;140022;-66
2022/10/05 17:31:17;;;;;;;4.80;4.20;;;;;;;14.14;68.83;100158.85;215284;1276;141006;-67
2022/10/05 17:36:36;;;;;;;5.10;4.20;;;;;;;14.06;68.97;100155.64;215559;1276;140504;-66
2022/10/05 17:41:39;;;;;;;7.90;4.40;;;;;;;13.98;69.14;100148.95;215426;1276;140342;-66
2022/10/05 17:46:51;;;;;;;5.90;4.50;;;;;;;13.89;69.40;100149.39;215495;1275;140355;-66
2022/10/05 17:57:26;;;;;;;10.50;5.20;;;;;;;13.76;69.64;100142.41;215552;1275;141983;-65
2022/10/05 18:02:37;;;;;;;9.40;5.20;;;;;;;13.72;69.81;100135.07;215107;1276;140811;-65
2022/10/05 18:07:47;;;;;;;12.70;5.10;;;;;;;13.66;69.76;100136.63;215213;1277;142224;-66
2022/10/05 18:13:18;;;;;;;5.90;5.30;;;;;;;13.56;69.91;100138.23;215243;1276;142523;-66
2022/10/05 18:18:53;;;;;;;11.70;5.00;;;;;;;13.44;70.17;100140.63;215595;1276;140033;-66
2022/10/05 18:23:57;;;;;;;7.70;5.20;;;;;;;13.39;70.67;100140.93;214415;1276;141210;-65
2022/10/05 18:30:01;;;;;;;7.50;4.50;;;;;;;13.40;70.77;100134.30;215478;1276;141316;-65
2022/10/05 18:34:58;;;;;;;7.60;4.20;;;;;;;13.38;70.81;100134.43;214565;1276;141883;-66
2022/10/05 18:40:23;;;;;;;6.70;5.10;;;;;;;13.32;71.13;100133.69;214400;1276;141070;-65
2022/10/05 18:46:10;;;;;;;5.30;4.50;;;;;;;13.29;71.10;100132.52;215294;1276;140967;-65
2022/10/05 18:51:39;;;;;;;7.50;4.50;;;;;;;13.25;71.39;100131.05;214129;1276;140407;-65
2022/10/05 18:56:50;;;;;;;7.00;5.10;;;;;;;13.25;71.46;100125.47;215508;1276;142362;-64
2022/10/05 19:02:17;;;;;;;5.70;5.00;;;;;;;13.25;71.72;100123.17;215615;1276;143565;-66
2022/10/05 19:07:35;;;;;;;5.00;4.50;;;;;;;13.26;71.62;100125.66;215397;1276;140907;-64
2022/10/05 19:13:08;;;;;;;5.40;4.30;;;;;;;13.21;71.45;100131.13;215307;1277;142335;-66
2022/10/05 19:18:38;;;;;;;10.00;5.70;;;;;;;13.20;71.72;100139.52;215400;1276;141522;-66
2022/10/05 19:23:56;;;;;;;5.30;3.30;;;;;;;13.19;71.85;100138.66;214703;1275;141064;-65
2022/10/05 19:29:32;;;;;;;8.00;5.20;;;;;;;13.12;71.72;100139.43;215351;1276;141371;-65
2022/10/05 19:35:14;;;;;;;7.90;4.60;;;;;;;13.08;71.93;100141.52;214635;1276;140148;-67
2022/10/05 19:40:55;;;;;;;7.20;5.50;;;;;;;13.03;71.82;100135.80;215280;1276;142051;-68
2022/10/05 19:45:57;;;;;;;6.90;4.60;;;;;;;12.99;72.38;100135.86;215405;1275;141943;-67
2022/10/05 19:51:10;;;;;;;10.50;5.30;;;;;;;12.89;72.09;100140.55;215698;1276;141243;-67
2022/10/05 19:56:24;;;;;;;7.80;4.60;;;;;;;12.82;72.41;100138.78;215650;1276;141916;-66
2022/10/05 20:01:39;;;;;;;7.30;4.70;;;;;;;12.76;72.35;100139.54;215341;1276;141789;-66
2022/10/05 20:06:46;;;;;;;8.80;7.00;;;;;;;12.73;72.38;100142.04;215574;1276;142795;-66
2022/10/05 20:11:51;;;;;;;;;;;;;;;12.72;72.49;100145.70;215625;1276;141875;-66
2022/10/05 20:22:47;;;;;;;7.10;4.70;;;;;;;12.61;72.78;100161.30;215416;1276;140620;-66
2022/10/05 20:27:56;;;;;;;7.10;4.50;;;;;;;12.52;72.96;100169.23;215504;1276;140810;-67
2022/10/05 20:33:00;;;;;;;7.60;6.10;;;;;;;12.47;73.00;100172.94;215568;1276;141196;-66
2022/10/05 20:38:05;;;;;;;5.60;3.70;;;;;;;12.48;73.01;100180.28;214910;1276;140866;-67
2022/10/05 20:43:08;;;;;;;6.90;4.60;;;;;;;12.44;73.28;100182.91;214042;1276;140189;-65
2022/10/05 20:48:10;;;;;;;6.60;5.10;;;;;;;12.41;73.32;100188.95;214379;1276;141051;-65
2022/10/05 20:53:13;;;;;;;8.00;4.30;;;;;;;12.36;73.26;100188.66;214492;1276;142504;-67
2022/10/05 20:58:17;;;;;;;8.50;5.30;;;;;;;12.32;73.43;100192.11;215298;1276;141192;-66
2022/10/05 21:03:19;;;;;;;11.00;4.20;;;;;;;12.29;73.67;100195.69;214376;1276;142364;-65
2022/10/05 21:08:23;;;;;;;10.50;4.50;;;;;;;12.25;73.49;100204.57;215399;1275;140409;-67
2022/10/05 21:13:26;;;;;;;10.10;4.80;;;;;;;12.21;73.79;100204.14;215546;1276;141639;-65
2022/10/05 21:18:28;;;;;;;7.40;4.70;;;;;;;12.15;74.01;100206.41;214664;1276;140798;-66
2022/10/05 21:23:32;;;;;;;7.40;5.40;;;;;;;12.11;74.14;100212.68;215353;1276;140722;-65
2022/10/05 21:28:35;;;;;;;6.70;3.90;;;;;;;12.10;74.20;100212.42;215480;1276;141468;-66
2022/10/05 21:33:37;;;;;;;7.10;4.70;;;;;;;12.09;74.28;100214.38;215576;1276;142259;-66
2022/10/05 21:38:40;;;;;;;5.00;4.50;;;;;;;12.08;74.33;100216.77;213932;1276;140519;-64
2022/10/05 21:43:44;;;;;;;8.10;5.50;;;;;;;12.06;74.19;100215.61;215368;1276;140370;-66
2022/10/05 21:48:48;;;;;;;7.70;5.60;;;;;;;12.03;74.34;100225.04;215707;1276;142128;-66
2022/10/05 21:53:55;;;;;;;8.90;5.80;;;;;;;12.05;74.42;100230.59;212719;1276;3499299;-65
2022/10/05 21:59:00;;;;;;;13.30;7.00;;;;;;;12.02;74.20;100230.89;215519;1276;141556;-64
2022/10/05 22:04:03;;;;;;;6.50;4.90;;;;;;;11.99;74.69;100230.61;215551;1276;141659;-67
2022/10/05 22:09:06;;;;;;;8.30;5.30;;;;;;;11.95;74.54;100231.63;215502;1276;141143;-67
2022/10/05 22:14:08;;;;;;;8.20;5.50;;;;;;;11.92;74.56;100230.88;215346;1276;141299;-66
2022/10/05 22:19:15;;;;;;;8.00;5.20;;;;;;;11.90;74.73;100234.94;215658;1276;141944;-66
2022/10/05 22:24:17;;;;;;;6.60;5.20;;;;;;;11.84;74.88;100237.42;215546;1276;140185;-66
2022/10/05 22:29:20;;;;;;;7.30;5.30;;;;;;;11.82;74.76;100238.97;215501;1276;141664;-66
2022/10/05 22:34:22;;;;;;;9.30;5.70;;;;;;;11.76;74.73;100238.55;215273;1276;140695;-66
2022/10/05 22:39:25;;;;;;;5.90;4.30;;;;;;;11.70;75.07;100243.30;215322;1276;141030;-66
2022/10/05 22:44:28;;;;;;;5.80;4.80;;;;;;;11.66;75.26;100245.20;215469;1276;141202;-66
2022/10/05 22:49:34;;;;;;;10.20;6.20;;;;;;;11.58;75.23;100248.02;215444;1276;141401;-66
2022/10/05 22:54:37;;;;;;;4.60;4.20;;;;;;;11.53;75.48;100244.73;215510;1276;140987;-65
2022/10/05 22:59:39;;;;;;;6.50;5.10;;;;;;;11.51;75.70;100247.72;215629;1276;140291;-65
2022/10/05 23:04:42;;;;;;;7.00;5.40;;;;;;;11.50;75.80;100249.26;213712;1276;141067;-65
2022/10/05 23:09:45;;;;;;;4.90;4.10;;;;;;;11.48;75.76;100251.41;215593;1276;142382;-66
2022/10/05 23:14:47;;;;;;;7.50;4.70;;;;;;;11.47;75.93;100254.63;214071;1276;140962;-65
2022/10/05 23:19:49;;;;;;;10.00;5.40;;;;;;;11.45;76.35;100260.27;215310;1276;140769;-66
2022/10/05 23:24:53;;;;;;;6.80;4.80;;;;;;;11.43;76.35;100260.96;215416;1276;141848;-66
2022/10/05 23:29:56;;;;;;;12.70;5.60;;;;;;;11.40;76.28;100264.09;215329;1277;141328;-66
2022/10/05 23:34:59;;;;;;;12.10;5.20;;;;;;;11.33;76.24;100264.50;215585;1276;140529;-65
2022/10/05 23:40:02;;;;;;;8.10;5.10;;;;;;;11.32;76.58;100265.55;215594;1276;141056;-65
2022/10/05 23:45:06;;;;;;;8.40;4.70;;;;;;;11.31;76.62;100269.35;215337;1276;141051;-65
2022/10/05 23:50:09;;;;;;;6.10;5.30;;;;;;;11.31;76.93;100267.59;215447;1276;140685;-65
2022/10/05 23:55:12;;;;;;;7.80;4.80;;;;;;;11.32;77.09;100270.89;215468;1276;141281;-65
